Terminal Aerodrome Forecast
Issued by NWS North Platte, NE

Home | Current Version | Previous Version | Text Only | Print | Product List | Glossary On
Versions: 1 2 3 4 5 6 7 8 9 10 11 12 13 14 15 16 17 18 19
000
FTUS43 KLBF 291100
TAFLBF
TAF
KLBF 291132Z 2912/3012 27006KT P6SM SCT120
     FM291500 32012KT P6SM SCT120
     FM291800 35015G22KT P6SM VCSH OVC050
      TEMPO 2919/2922 -SHRA OVC040
     FM300000 36012KT P6SM OVC030=

USA.gov is the U.S. government's official web portal to all federal, state and local government web resources and services.